^^
Station Historical Data
Daily Summary for November 11, 2017 Units:  Metric    English   Both
« Previous Day
Next Day »
Daily Weekly Monthly Yearly Custom
  High: Low: Average:
Temperature: 2.1 °C -5.6 °C -2.6 °C
Dew Point: -9.2 °C -13.2 °C -10.9 °C
Humidity: 71% 32% 54%
Wind Speed: 8km/h 0km/h 1.1km/h
Wind Gust: 20.9km/h - -
Wind- - SW
Pressure: 1036.1 hPa 1032.4 hPa -
Precipitation: 0 mm    
Historical Graphs
 
 
Tabular Data for November 11, 2017
Time Temperature Dew Point Pressure Wind Wind Speed Wind Gust Humidity Rainfall Rate (Hourly) Conditions
00:00 -5 °C -11.3 °C 1033.1 hPa SSW 1.6 km/h 9.7 km/h 61% 0 mm CLR
00:10 -5.1 °C -11.3 °C 1033.1 hPa SSE 1.6 km/h 8 km/h 62% 0 mm CLR
00:20 -5.2 °C -11.4 °C 1033.1 hPa SW 3.2 km/h 12.9 km/h 62% 0 mm CLR
00:30 -5.2 °C -11.2 °C 1033.1 hPa Calm   8 km/h 63% 0 mm CLR
00:40 -5.3 °C -11.1 °C 1032.7 hPa Calm   4.8 km/h 64% 0 mm CLR
00:50 -5.3 °C -10.9 °C 1032.7 hPa Calm   6.4 km/h 65% 0 mm CLR
01:00 -5.4 °C -10.7 °C 1033.1 hPa NW 1.6 km/h 11.3 km/h 66% 0 mm CLR
01:09 -5.3 °C -10.7 °C 1032.7 hPa Calm   9.7 km/h 66% 0 mm CLR
01:19 -5.3 °C -10.5 °C 1032.7 hPa Calm   4.8 km/h 67% 0 mm CLR
01:30 -5.3 °C -10.3 °C 1032.7 hPa ENE 1.6 km/h 11.3 km/h 68% 0 mm CLR
01:39 -5.3 °C -10.3 °C 1032.7 hPa Calm   11.3 km/h 68% 0 mm CLR
01:49 -5.3 °C -10.3 °C 1033.1 hPa East 1.6 km/h 9.7 km/h 68% 0 mm CLR
02:00 -5.3 °C -9.9 °C 1032.7 hPa WSW 1.6 km/h 8 km/h 70% 0 mm CLR
02:10 -5.3 °C -10.1 °C 1032.7 hPa NW 3.2 km/h 12.9 km/h 69% 0 mm CLR
02:20 -5.2 °C -9.8 °C 1032.4 hPa Calm   16.1 km/h 70% 0 mm CLR
02:29 -5.2 °C -9.6 °C 1032.7 hPa East 1.6 km/h 11.3 km/h 71% 0 mm CLR
02:40 -5.2 °C -9.8 °C 1033.1 hPa NE 3.2 km/h 11.3 km/h 70% 0 mm CLR
02:49 -5.2 °C -9.8 °C 1032.7 hPa Calm   16.1 km/h 70% 0 mm CLR
02:59 -5.3 °C -9.9 °C 1032.7 hPa Calm   14.5 km/h 70% 0 mm CLR
03:10 -5.3 °C -9.9 °C 1033.1 hPa North 3.2 km/h 14.5 km/h 70% 0 mm CLR
03:19 -5.4 °C -10.2 °C 1033.1 hPa Calm   4.8 km/h 69% 0 mm CLR
03:29 -5.4 °C -10 °C 1033.1 hPa SW 1.6 km/h 6.4 km/h 70% 0 mm CLR
03:40 -5.4 °C -10 °C 1033.4 hPa NW 1.6 km/h 8 km/h 70% 0 mm CLR
03:50 -5.3 °C -9.9 °C 1033.7 hPa NNE 3.2 km/h 14.5 km/h 70% 0 mm CLR
04:00 -5.3 °C -9.9 °C 1033.7 hPa NNW 4.8 km/h 12.9 km/h 70% 0 mm CLR
04:10 -5.3 °C -9.9 °C 1033.7 hPa Calm   8 km/h 70% 0 mm CLR
04:20 -5.4 °C -9.9 °C 1034.1 hPa Calm   9.7 km/h 71% 0 mm CLR
04:30 -5.4 °C -9.9 °C 1034.1 hPa Calm   12.9 km/h 71% 0 mm CLR
04:39 -5.6 °C -10 °C 1034.1 hPa Calm   4.8 km/h 71% 0 mm CLR
04:50 -5.6 °C -10 °C 1034.1 hPa Calm   8 km/h 71% 0 mm CLR
04:59 -5.5 °C -9.9 °C 1034.1 hPa Calm   9.7 km/h 71% 0 mm CLR
05:10 -5.3 °C -9.8 °C 1034.1 hPa North 3.2 km/h 9.7 km/h 71% 0 mm CLR
05:20 -5.3 °C -9.7 °C 1034.1 hPa Calm   12.9 km/h 71% 0 mm CLR
05:29 -5.2 °C -9.8 °C 1033.7 hPa Calm   14.5 km/h 70% 0 mm CLR
05:40 -5.1 °C -9.6 °C 1033.7 hPa ENE 1.6 km/h 12.9 km/h 71% 0 mm CLR
05:49 -5.2 °C -9.8 °C 1033.4 hPa North 1.6 km/h 12.9 km/h 70% 0 mm CLR
05:59 -5.3 °C -9.7 °C 1033.7 hPa Calm   11.3 km/h 71% 0 mm CLR
06:09 -5.3 °C -9.8 °C 1034.1 hPa SSE 3.2 km/h 11.3 km/h 71% 0 mm CLR
06:20 -5.4 °C -9.8 °C 1034.1 hPa Calm   4.8 km/h 71% 0 mm CLR
06:29 -5.4 °C -10 °C 1034.4 hPa NE 1.6 km/h 4.8 km/h 70% 0 mm CLR
06:40 -5.3 °C -9.9 °C 1034.4 hPa Calm   6.4 km/h 70% 0 mm CLR
06:49 -5.2 °C -10 °C 1034.4 hPa Calm   4.8 km/h 69% 0 mm CLR
06:59 -5.2 °C -9.9 °C 1034.8 hPa Calm   4.8 km/h 69% 0 mm CLR
07:09 -5.1 °C -10.1 °C 1034.4 hPa SSE 1.6 km/h 8 km/h 68% 0 mm CLR
07:20 -5.1 °C -10.1 °C 1034.8 hPa NNW 3.2 km/h 6.4 km/h 68% 0 mm CLR
07:30 -4.9 °C -9.7 °C 1035.1 hPa Calm   3.2 km/h 69% 0 mm CLR
07:40 -4.7 °C -9.6 °C 1035.1 hPa Calm   9.7 km/h 69% 0 mm CLR
07:49 -4.6 °C -9.6 °C 1035.1 hPa Calm   6.4 km/h 68% 0 mm CLR
07:59 -4.4 °C -9.8 °C 1035.4 hPa Calm   8 km/h 66% 0 mm CLR
08:10 -4.3 °C -10.5 °C 1035.4 hPa NNW 1.6 km/h 11.3 km/h 62% 0 mm CLR
08:20 -4.3 °C -11.4 °C 1035.4 hPa North 3.2 km/h 16.1 km/h 58% 0 mm CLR
08:29 -4.3 °C -11.5 °C 1035.8 hPa North 1.6 km/h 12.9 km/h 57% 0 mm CLR
08:39 -4.2 °C -11.1 °C 1035.8 hPa North 1.6 km/h 11.3 km/h 59% 0 mm CLR
08:50 -4.1 °C -11.1 °C 1035.8 hPa North 3.2 km/h 8 km/h 58% 0 mm CLR
08:59 -3.9 °C -11.2 °C 1035.8 hPa NNE 1.6 km/h 12.9 km/h 57% 0 mm CLR
09:09 -3.6 °C -11.3 °C 1035.8 hPa Calm   12.9 km/h 55% 0 mm CLR
09:20 -3.3 °C -12 °C 1035.8 hPa NNW 3.2 km/h 14.5 km/h 51% 0 mm CLR
09:30 -3.2 °C -12.7 °C 1035.8 hPa NW 1.6 km/h 16.1 km/h 48% 0 mm CLR
09:50 -2.6 °C -12.1 °C 1035.8 hPa NW 3.2 km/h 14.5 km/h 48% 0 mm CLR
09:59 -2.4 °C -12.2 °C 1035.8 hPa NNW 8 km/h 14.5 km/h 47% 0 mm CLR
10:09 -2.5 °C -12.3 °C 1036.1 hPa NNE 3.2 km/h 16.1 km/h 47% 0 mm CLR
10:20 -2.1 °C -11.6 °C 1036.1 hPa NNW 3.2 km/h 9.7 km/h 48% 0 mm CLR
10:30 -1.7 °C -11.6 °C 1036.1 hPa NNW 3.2 km/h 19.3 km/h 47% 0 mm CLR
10:40 -1.6 °C -11.2 °C 1036.1 hPa North 3.2 km/h 11.3 km/h 48% 0 mm CLR
10:49 -1.3 °C -11.2 °C 1035.8 hPa NNE 1.6 km/h 11.3 km/h 47% 0 mm CLR
10:59 -1.2 °C -11.1 °C 1036.1 hPa North 1.6 km/h 14.5 km/h 47% 0 mm CLR
11:10 -1.3 °C -11.2 °C 1035.8 hPa WNW 3.2 km/h 19.3 km/h 47% 0 mm CLR
11:20 -1.2 °C -11.4 °C 1035.8 hPa NW 1.6 km/h 20.9 km/h 46% 0 mm CLR
11:30 -1 °C -11.2 °C 1035.8 hPa Calm   12.9 km/h 46% 0 mm CLR
11:39 -0.6 °C -11.1 °C 1035.4 hPa West 3.2 km/h 14.5 km/h 45% 0 mm CLR
11:49 -0.6 °C -10.8 °C 1035.4 hPa WNW 3.2 km/h 16.1 km/h 46% 0 mm CLR
11:59 -0.6 °C -11 °C 1035.1 hPa WNW 3.2 km/h 12.9 km/h 45% 0 mm CLR
12:10 -0.5 °C -10.4 °C 1035.1 hPa North 4.8 km/h 14.5 km/h 47% 0 mm CLR
12:19 0 °C -10 °C 1035.1 hPa ESE 1.6 km/h 8 km/h 47% 0 mm CLR
12:30 -0.1 °C -9.8 °C 1035.1 hPa NW 4.8 km/h 19.3 km/h 48% 0 mm CLR
12:39 -0.1 °C -10.1 °C 1034.8 hPa Calm   19.3 km/h 47% 0 mm CLR
12:49 0.4 °C -10.2 °C 1034.8 hPa NW 3.2 km/h 19.3 km/h 45% 0 mm CLR
12:59 0.4 °C -9.8 °C 1034.4 hPa NNE 3.2 km/h 11.3 km/h 46% 0 mm CLR
13:10 0.7 °C -9.6 °C 1034.4 hPa North 3.2 km/h 12.9 km/h 46% 0 mm CLR
13:20 0.6 °C -10 °C 1034.1 hPa NNW 3.2 km/h 14.5 km/h 45% 0 mm CLR
13:30 0.8 °C -10.1 °C 1033.7 hPa NW 4.8 km/h 14.5 km/h 44% 0 mm CLR
13:39 1 °C -9.9 °C 1033.7 hPa Calm   12.9 km/h 44% 0 mm CLR
13:50 1.3 °C -9.9 °C 1033.4 hPa NW 4.8 km/h 9.7 km/h 43% 0 mm CLR
13:59 1.4 °C -11.1 °C 1033.4 hPa NNW 3.2 km/h 12.9 km/h 39% 0 mm CLR
14:10 1.3 °C -11.8 °C 1033.4 hPa NNW 1.6 km/h 14.5 km/h 37% 0 mm CLR
14:20 1.6 °C -11.6 °C 1033.4 hPa NNW 1.6 km/h 6.4 km/h 37% 0 mm CLR
14:29 1.8 °C -12.1 °C 1033.7 hPa NNE 1.6 km/h 9.7 km/h 35% 0 mm CLR
14:40 2 °C -12.3 °C 1033.7 hPa Calm   8 km/h 34% 0 mm CLR
14:49 2.1 °C -12.6 °C 1033.4 hPa NW 1.6 km/h 6.4 km/h 33% 0 mm CLR
14:59 1.9 °C -11.6 °C 1033.7 hPa NW 1.6 km/h 9.7 km/h 36% 0 mm CLR
15:09 2.1 °C -12.2 °C 1033.7 hPa NNW 1.6 km/h 8 km/h 34% 0 mm CLR
15:20 1.8 °C -13.2 °C 1033.7 hPa Calm   8 km/h 32% 0 mm CLR
15:29 1.7 °C -12.8 °C 1033.7 hPa NW 1.6 km/h 3.2 km/h 33% 0 mm CLR
15:39 1.5 °C -12.7 °C 1033.7 hPa Calm   4.8 km/h 34% 0 mm CLR
15:49 1.2 °C -12.6 °C 1033.7 hPa Calm   3.2 km/h 35% 0 mm CLR
15:59 1.1 °C -12.7 °C 1033.7 hPa Calm   1.6 km/h 35% 0 mm CLR
16:09 0.8 °C -12.9 °C 1033.7 hPa Calm   3.2 km/h 35% 0 mm CLR
16:19 0.6 °C -12.5 °C 1034.1 hPa Calm   4.8 km/h 37% 0 mm CLR
16:30 0.3 °C -12.3 °C 1034.1 hPa Calm   1.6 km/h 38% 0 mm CLR
16:39 -0.1 °C -11.5 °C 1034.1 hPa Calm     42% 0 mm CLR
16:49 -0.4 °C -12.4 °C 1034.1 hPa Calm     40% 0 mm CLR
16:59 -0.7 °C -12 °C 1034.4 hPa Calm     42% 0 mm CLR
17:09 -0.8 °C -12.4 °C 1034.4 hPa Calm     41% 0 mm CLR
17:20 -1 °C -12.3 °C 1034.4 hPa Calm     42% 0 mm CLR
17:29 -1.2 °C -11.6 °C 1034.4 hPa Calm     45% 0 mm CLR
17:40 -1.2 °C -11.9 °C 1034.4 hPa Calm     44% 0 mm CLR
17:49 -1.3 °C -12.3 °C 1034.4 hPa Calm   1.6 km/h 43% 0 mm CLR
17:59 -1.3 °C -12.1 °C 1034.8 hPa Calm     44% 0 mm CLR
18:10 -1.3 °C -12.6 °C 1034.8 hPa Calm     42% 0 mm CLR
18:20 -1.4 °C -12.7 °C 1034.8 hPa Calm   1.6 km/h 42% 0 mm CLR
18:30 -1.5 °C -12.2 °C 1034.8 hPa Calm     44% 0 mm CLR
18:40 -1.6 °C -12.2 °C 1034.8 hPa Calm     44% 0 mm CLR
18:49 -1.6 °C -12.3 °C 1034.8 hPa Calm   1.6 km/h 44% 0 mm CLR
19:00 -1.8 °C -12.2 °C 1034.8 hPa Calm     45% 0 mm CLR
19:09 -1.9 °C -12 °C 1034.8 hPa Calm     46% 0 mm CLR
19:20 -1.9 °C -12.6 °C 1034.8 hPa Calm     44% 0 mm CLR
19:29 -1.9 °C -12.6 °C 1035.1 hPa Calm     44% 0 mm CLR
19:39 -2.1 °C -12.7 °C 1035.1 hPa Calm     44% 0 mm CLR
19:49 -2.1 °C -12.4 °C 1034.8 hPa Calm     45% 0 mm CLR
19:59 -2.1 °C -12.2 °C 1034.8 hPa Calm   1.6 km/h 46% 0 mm CLR
20:10 -2.2 °C -11.4 °C 1035.1 hPa Calm     49% 0 mm CLR
20:20 -2.2 °C -11.4 °C 1035.1 hPa Calm   1.6 km/h 49% 0 mm CLR
20:30 -2.2 °C -11.4 °C 1034.8 hPa Calm   1.6 km/h 49% 0 mm CLR
20:40 -2.2 °C -11.2 °C 1034.8 hPa Calm     50% 0 mm CLR
20:49 -2.1 °C -11.4 °C 1034.4 hPa Calm     49% 0 mm CLR
20:59 -2.1 °C -11.2 °C 1034.4 hPa Calm     50% 0 mm CLR
21:09 -2 °C -10.6 °C 1034.4 hPa Calm     52% 0 mm CLR
21:19 -2.1 °C -11.1 °C 1034.4 hPa Calm     50% 0 mm CLR
21:29 -2 °C -11.1 °C 1034.4 hPa Calm     50% 0 mm CLR
21:40 -2 °C -10.3 °C 1034.4 hPa Calm     53% 0 mm CLR
21:49 -2.2 °C -10.7 °C 1034.4 hPa Calm     52% 0 mm CLR
21:59 -2.3 °C -10.3 °C 1034.1 hPa Calm     54% 0 mm CLR
22:10 -2.3 °C -10.6 °C 1034.1 hPa Calm     53% 0 mm CLR
22:19 -2.3 °C -10.4 °C 1034.1 hPa Calm   1.6 km/h 54% 0 mm CLR
22:39 -2.3 °C -10.3 °C 1033.7 hPa Calm     54% 0 mm CLR
22:49 -2.2 °C -9.8 °C 1033.7 hPa Calm   1.6 km/h 56% 0 mm CLR
22:59 -2.2 °C -9.8 °C 1033.7 hPa Calm   1.6 km/h 56% 0 mm CLR
23:20 -2.8 °C -9.3 °C 1034.4 hPa Calm     61% 0 mm CLR
23:29 -3.2 °C -9.2 °C 1034.4 hPa Calm     63% 0 mm CLR
23:39 -3.4 °C -9.2 °C 1034.1 hPa Calm     64% 0 mm CLR
23:49 -3.2 °C -9.4 °C 1034.1 hPa Calm     62% 0 mm CLR
23:59 -3.2 °C -9.8 °C 1034.1 hPa Calm     60% 0 mm CLR
TarryTown NY Weather
Compliments of Weather Underground - 1.75 mb